sensor_id;sensor_type;location;lat;lon;timestamp;pressure;altitude;pressure_sealevel;temperature;humidity
81937;BME280;71432;56.558;9.036;2023-07-16T00:00:50;100219.88;;;24.83;53.03
81937;BME280;71432;56.558;9.036;2023-07-16T00:03:16;100208.91;;;24.86;53.01
81937;BME280;71432;56.558;9.036;2023-07-16T00:05:41;100196.22;;;24.81;53.12
81937;BME280;71432;56.558;9.036;2023-07-16T00:08:07;100187.91;;;24.84;52.97
81937;BME280;71432;56.558;9.036;2023-07-16T00:10:36;100166.09;;;24.82;53.13
81937;BME280;71432;56.558;9.036;2023-07-16T00:13:02;100185.00;;;24.79;53.16
81937;BME280;71432;56.558;9.036;2023-07-16T00:15:28;100192.94;;;24.79;53.22
81937;BME280;71432;56.558;9.036;2023-07-16T00:17:53;100188.47;;;24.79;52.99
81937;BME280;71432;56.558;9.036;2023-07-16T00:20:20;100197.41;;;24.78;53.10
81937;BME280;71432;56.558;9.036;2023-07-16T00:22:45;100196.59;;;24.78;53.03
81937;BME280;71432;56.558;9.036;2023-07-16T00:25:11;100203.53;;;24.79;52.92
81937;BME280;71432;56.558;9.036;2023-07-16T00:27:36;100191.84;;;24.73;53.33
81937;BME280;71432;56.558;9.036;2023-07-16T00:30:02;100202.72;;;24.78;53.22
81937;BME280;71432;56.558;9.036;2023-07-16T00:32:28;100201.06;;;24.77;53.10
81937;BME280;71432;56.558;9.036;2023-07-16T00:34:53;100197.41;;;24.78;53.12
81937;BME280;71432;56.558;9.036;2023-07-16T00:37:19;100199.63;;;24.75;53.35
81937;BME280;71432;56.558;9.036;2023-07-16T00:39:44;100199.63;;;24.75;53.20
81937;BME280;71432;56.558;9.036;2023-07-16T00:42:09;100201.25;;;24.76;53.37
81937;BME280;71432;56.558;9.036;2023-07-16T00:44:35;100194.94;;;24.77;53.46
81937;BME280;71432;56.558;9.036;2023-07-16T00:47:00;100205.75;;;24.75;53.16
81937;BME280;71432;56.558;9.036;2023-07-16T00:49:26;100203.25;;;24.74;53.33
81937;BME280;71432;56.558;9.036;2023-07-16T00:51:52;100207.75;;;24.73;53.33
81937;BME280;71432;56.558;9.036;2023-07-16T00:54:19;100208.56;;;24.74;53.18
81937;BME280;71432;56.558;9.036;2023-07-16T00:56:44;100200.63;;;24.74;53.36
81937;BME280;71432;56.558;9.036;2023-07-16T00:59:10;100209.56;;;24.73;53.43
81937;BME280;71432;56.558;9.036;2023-07-16T01:01:37;100227.09;;;24.74;53.35
81937;BME280;71432;56.558;9.036;2023-07-16T01:04:04;100217.50;;;24.73;53.18
81937;BME280;71432;56.558;9.036;2023-07-16T01:06:36;100213.41;;;24.70;53.14
81937;BME280;71432;56.558;9.036;2023-07-16T01:09:08;100208.94;;;24.71;53.34
81937;BME280;71432;56.558;9.036;2023-07-16T01:11:35;100218.50;;;24.72;53.33
81937;BME280;71432;56.558;9.036;2023-07-16T01:14:02;100214.03;;;24.72;53.13
81937;BME280;71432;56.558;9.036;2023-07-16T01:16:28;100209.72;;;24.71;53.21
81937;BME280;71432;56.558;9.036;2023-07-16T01:18:53;100205.47;;;24.70;53.38
81937;BME280;71432;56.558;9.036;2023-07-16T01:21:21;100205.63;;;24.69;53.12
81937;BME280;71432;56.558;9.036;2023-07-16T01:24:12;100216.41;;;24.67;53.30
81937;BME280;71432;56.558;9.036;2023-07-16T01:26:44;100221.34;;;24.70;53.13
81937;BME280;71432;56.558;9.036;2023-07-16T01:29:28;100217.88;;;24.70;53.07
81937;BME280;71432;56.558;9.036;2023-07-16T01:31:55;100219.25;;;24.66;53.60
81937;BME280;71432;56.558;9.036;2023-07-16T01:34:22;100223.91;;;24.64;53.21
81937;BME280;71432;56.558;9.036;2023-07-16T01:36:49;100209.84;;;24.63;53.24
81937;BME280;71432;56.558;9.036;2023-07-16T01:39:16;100200.91;;;24.64;53.20
81937;BME280;71432;56.558;9.036;2023-07-16T01:41:41;100197.88;;;24.67;53.27
81937;BME280;71432;56.558;9.036;2023-07-16T01:44:07;100190.13;;;24.66;53.25
81937;BME280;71432;56.558;9.036;2023-07-16T01:46:32;100193.78;;;24.65;53.35
81937;BME280;71432;56.558;9.036;2023-07-16T01:48:57;100195.44;;;24.66;53.39
81937;BME280;71432;56.558;9.036;2023-07-16T01:51:23;100199.25;;;24.63;53.25
81937;BME280;71432;56.558;9.036;2023-07-16T01:53:48;100198.16;;;24.58;53.30
81937;BME280;71432;56.558;9.036;2023-07-16T01:56:13;100218.78;;;24.62;53.64
81937;BME280;71432;56.558;9.036;2023-07-16T01:58:39;100219.44;;;24.64;53.30
81937;BME280;71432;56.558;9.036;2023-07-16T02:01:04;100208.19;;;24.62;53.17
81937;BME280;71432;56.558;9.036;2023-07-16T02:03:29;100197.81;;;24.61;53.22
81937;BME280;71432;56.558;9.036;2023-07-16T02:05:55;100197.81;;;24.61;53.50
81937;BME280;71432;56.558;9.036;2023-07-16T02:08:20;100186.56;;;24.59;53.49
81937;BME280;71432;56.558;9.036;2023-07-16T02:10:48;100184.91;;;24.58;53.38
81937;BME280;71432;56.558;9.036;2023-07-16T02:13:14;100182.94;;;24.60;53.24
81937;BME280;71432;56.558;9.036;2023-07-16T02:15:39;100186.78;;;24.57;53.26
81937;BME280;71432;56.558;9.036;2023-07-16T02:18:06;100189.03;;;24.60;53.32
81937;BME280;71432;56.558;9.036;2023-07-16T02:20:31;100193.69;;;24.58;53.28
81937;BME280;71432;56.558;9.036;2023-07-16T02:22:57;100187.56;;;24.58;53.56
81937;BME280;71432;56.558;9.036;2023-07-16T02:25:22;100193.88;;;24.57;53.25
81937;BME280;71432;56.558;9.036;2023-07-16T02:27:47;100188.78;;;24.55;53.55
81937;BME280;71432;56.558;9.036;2023-07-16T02:30:14;100195.72;;;24.56;53.18
81937;BME280;71432;56.558;9.036;2023-07-16T02:32:40;100197.53;;;24.56;53.28
81937;BME280;71432;56.558;9.036;2023-07-16T02:35:06;100196.72;;;24.55;53.46
81937;BME280;71432;56.558;9.036;2023-07-16T02:37:31;100195.88;;;24.55;53.35
81937;BME280;71432;56.558;9.036;2023-07-16T02:39:56;100189.97;;;24.53;53.23
81937;BME280;71432;56.558;9.036;2023-07-16T02:42:22;100202.81;;;24.56;52.94
81937;BME280;71432;56.558;9.036;2023-07-16T02:44:47;100179.94;;;24.48;53.36
81937;BME280;71432;56.558;9.036;2023-07-16T02:47:13;100202.16;;;24.54;53.23
81937;BME280;71432;56.558;9.036;2023-07-16T02:49:38;100187.13;;;24.54;53.17
81937;BME280;71432;56.558;9.036;2023-07-16T02:52:04;100188.94;;;24.54;53.19
81937;BME280;71432;56.558;9.036;2023-07-16T02:54:30;100184.47;;;24.54;53.09
81937;BME280;71432;56.558;9.036;2023-07-16T02:56:55;100198.34;;;24.56;53.18
81937;BME280;71432;56.558;9.036;2023-07-16T02:59:21;100199.53;;;24.54;53.17
81937;BME280;71432;56.558;9.036;2023-07-16T03:01:46;100199.91;;;24.51;53.36
81937;BME280;71432;56.558;9.036;2023-07-16T03:04:11;100203.38;;;24.51;53.34
81937;BME280;71432;56.558;9.036;2023-07-16T03:06:37;100208.84;;;24.50;53.11
81937;BME280;71432;56.558;9.036;2023-07-16T03:09:03;100218.44;;;24.51;53.09
81937;BME280;71432;56.558;9.036;2023-07-16T03:11:28;100222.72;;;24.52;53.26
81937;BME280;71432;56.558;9.036;2023-07-16T03:13:54;100208.66;;;24.51;53.42
81937;BME280;71432;56.558;9.036;2023-07-16T03:16:19;100214.78;;;24.52;53.51
81937;BME280;71432;56.558;9.036;2023-07-16T03:18:44;100208.22;;;24.48;53.30
81937;BME280;71432;56.558;9.036;2023-07-16T03:21:13;100212.31;;;24.50;53.12
81937;BME280;71432;56.558;9.036;2023-07-16T03:23:38;100205.56;;;24.48;53.41
81937;BME280;71432;56.558;9.036;2023-07-16T03:26:04;100199.47;;;24.47;53.21
81937;BME280;71432;56.558;9.036;2023-07-16T03:28:29;100200.28;;;24.48;53.04
81937;BME280;71432;56.558;9.036;2023-07-16T03:30:55;100181.94;;;24.46;52.99
81937;BME280;71432;56.558;9.036;2023-07-16T03:33:20;100186.03;;;24.49;53.19
81937;BME280;71432;56.558;9.036;2023-07-16T03:35:47;100181.94;;;24.46;53.13
81937;BME280;71432;56.558;9.036;2023-07-16T03:38:13;100184.41;;;24.48;53.15
81937;BME280;71432;56.558;9.036;2023-07-16T03:40:38;100195.00;;;24.48;52.69
81937;BME280;71432;56.558;9.036;2023-07-16T03:43:04;100187.41;;;24.45;53.02
81937;BME280;71432;56.558;9.036;2023-07-16T03:45:30;100189.41;;;24.43;53.04
81937;BME280;71432;56.558;9.036;2023-07-16T03:47:55;100195.97;;;24.47;53.13
81937;BME280;71432;56.558;9.036;2023-07-16T03:50:20;100195.16;;;24.46;52.81
81937;BME280;71432;56.558;9.036;2023-07-16T03:52:46;100193.34;;;24.47;52.95
81937;BME280;71432;56.558;9.036;2023-07-16T03:55:12;100195.34;;;24.45;52.89
81937;BME280;71432;56.558;9.036;2023-07-16T03:57:37;100192.69;;;24.45;52.87
81937;BME280;71432;56.558;9.036;2023-07-16T04:00:04;100190.88;;;24.45;52.96
81937;BME280;71432;56.558;9.036;2023-07-16T04:02:32;100197.97;;;24.45;53.06
81937;BME280;71432;56.558;9.036;2023-07-16T04:04:58;100193.50;;;24.45;52.86
81937;BME280;71432;56.558;9.036;2023-07-16T04:07:23;100189.03;;;24.46;53.05
81937;BME280;71432;56.558;9.036;2023-07-16T04:09:48;100188.88;;;24.47;52.84
81937;BME280;71432;56.558;9.036;2023-07-16T04:12:14;100200.44;;;24.46;52.81
81937;BME280;71432;56.558;9.036;2023-07-16T04:14:39;100186.03;;;24.49;52.89
81937;BME280;71432;56.558;9.036;2023-07-16T04:17:05;100184.19;;;24.49;53.08
81937;BME280;71432;56.558;9.036;2023-07-16T04:19:30;100192.97;;;24.50;53.13
81937;BME280;71432;56.558;9.036;2023-07-16T04:21:55;100188.50;;;24.50;53.21
81937;BME280;71432;56.558;9.036;2023-07-16T04:24:21;100191.31;;;24.49;53.19
81937;BME280;71432;56.558;9.036;2023-07-16T04:26:46;100195.59;;;24.50;53.05
81937;BME280;71432;56.558;9.036;2023-07-16T04:29:11;100186.84;;;24.49;53.24
81937;BME280;71432;56.558;9.036;2023-07-16T04:31:37;100185.69;;;24.52;52.87
81937;BME280;71432;56.558;9.036;2023-07-16T04:34:02;100183.03;;;24.52;53.13
81937;BME280;71432;56.558;9.036;2023-07-16T04:36:27;100183.66;;;24.54;53.02
81937;BME280;71432;56.558;9.036;2023-07-16T04:38:53;100190.75;;;24.53;52.96
81937;BME280;71432;56.558;9.036;2023-07-16T04:41:19;100188.78;;;24.55;52.86
81937;BME280;71432;56.558;9.036;2023-07-16T04:43:44;100186.13;;;24.55;53.17
81937;BME280;71432;56.558;9.036;2023-07-16T04:46:09;100186.13;;;24.55;52.86
81937;BME280;71432;56.558;9.036;2023-07-16T04:48:37;100182.28;;;24.58;53.13
81937;BME280;71432;56.558;9.036;2023-07-16T04:51:02;100186.78;;;24.57;52.98
81937;BME280;71432;56.558;9.036;2023-07-16T04:53:27;100173.72;;;24.56;52.67
81937;BME280;71432;56.558;9.036;2023-07-16T04:55:53;100182.28;;;24.58;52.91
81937;BME280;71432;56.558;9.036;2023-07-16T04:58:18;100176.63;;;24.61;52.91
81937;BME280;71432;56.558;9.036;2023-07-16T05:00:43;100182.53;;;24.63;52.92
81937;BME280;71432;56.558;9.036;2023-07-16T05:03:09;100184.56;;;24.61;52.86
81937;BME280;71432;56.558;9.036;2023-07-16T05:05:34;100176.63;;;24.61;52.61
81937;BME280;71432;56.558;9.036;2023-07-16T05:08:00;100183.75;;;24.60;52.78
81937;BME280;71432;56.558;9.036;2023-07-16T05:10:27;100183.75;;;24.60;52.83
81937;BME280;71432;56.558;9.036;2023-07-16T05:12:52;100180.44;;;24.58;52.77
81937;BME280;71432;56.558;9.036;2023-07-16T05:15:18;100176.63;;;24.61;52.81
81937;BME280;71432;56.558;9.036;2023-07-16T05:17:43;100185.41;;;24.61;53.07
81937;BME280;71432;56.558;9.036;2023-07-16T05:20:09;100165.06;;;24.62;52.82
81937;BME280;71432;56.558;9.036;2023-07-16T05:22:34;100165.22;;;24.60;52.80
81937;BME280;71432;56.558;9.036;2023-07-16T05:25:00;100180.56;;;24.65;52.69
81937;BME280;71432;56.558;9.036;2023-07-16T05:27:25;100181.00;;;24.68;52.47
81937;BME280;71432;56.558;9.036;2023-07-16T05:29:50;100176.16;;;24.72;52.40
81937;BME280;71432;56.558;9.036;2023-07-16T05:32:16;100187.00;;;24.77;52.65
81937;BME280;71432;56.558;9.036;2023-07-16T05:34:41;100186.00;;;24.78;52.69
81937;BME280;71432;56.558;9.036;2023-07-16T05:37:06;100171.56;;;24.80;52.63
81937;BME280;71432;56.558;9.036;2023-07-16T05:39:32;100177.69;;;24.81;52.47
81937;BME280;71432;56.558;9.036;2023-07-16T05:41:57;100176.50;;;24.84;52.73
81937;BME280;71432;56.558;9.036;2023-07-16T05:44:23;100178.16;;;24.85;52.80
81937;BME280;71432;56.558;9.036;2023-07-16T05:46:48;100167.31;;;24.79;52.64
81937;BME280;71432;56.558;9.036;2023-07-16T05:49:13;100171.38;;;24.82;52.56
81937;BME280;71432;56.558;9.036;2023-07-16T05:51:39;100166.91;;;24.83;52.75
81937;BME280;71432;56.558;9.036;2023-07-16T05:54:04;100174.03;;;24.82;52.96
81937;BME280;71432;56.558;9.036;2023-07-16T05:56:29;100160.97;;;24.80;52.79
81937;BME280;71432;56.558;9.036;2023-07-16T05:58:55;100168.75;;;24.82;52.59
81937;BME280;71432;56.558;9.036;2023-07-16T06:01:21;100159.34;;;24.79;52.55
81937;BME280;71432;56.558;9.036;2023-07-16T06:03:47;100174.69;;;24.84;52.63
81937;BME280;71432;56.558;9.036;2023-07-16T06:06:12;100179.97;;;24.84;52.59
81937;BME280;71432;56.558;9.036;2023-07-16T06:08:37;100182.63;;;24.84;52.51
81937;BME280;71432;56.558;9.036;2023-07-16T06:11:03;100187.09;;;24.84;52.74
81937;BME280;71432;56.558;9.036;2023-07-16T06:13:29;100185.28;;;24.84;52.48
81937;BME280;71432;56.558;9.036;2023-07-16T06:15:54;100184.44;;;24.84;52.77
81937;BME280;71432;56.558;9.036;2023-07-16T06:18:20;100182.63;;;24.84;52.54
81937;BME280;71432;56.558;9.036;2023-07-16T06:20:45;100188.75;;;24.85;52.32
81937;BME280;71432;56.558;9.036;2023-07-16T06:23:13;100184.91;;;24.87;52.71
81937;BME280;71432;56.558;9.036;2023-07-16T06:25:42;100180.63;;;24.86;52.56
81937;BME280;71432;56.558;9.036;2023-07-16T06:28:09;100186.19;;;24.91;52.38
81937;BME280;71432;56.558;9.036;2023-07-16T06:30:35;100180.06;;;24.91;52.21
81937;BME280;71432;56.558;9.036;2023-07-16T06:33:00;100177.44;;;24.91;52.25
81937;BME280;71432;56.558;9.036;2023-07-16T06:35:25;100177.06;;;24.94;52.50
81937;BME280;71432;56.558;9.036;2023-07-16T06:37:51;100171.94;;;24.92;52.59
81937;BME280;71432;56.558;9.036;2023-07-16T06:40:16;100168.47;;;24.92;52.66
81937;BME280;71432;56.558;9.036;2023-07-16T06:42:41;100172.78;;;24.93;51.97
81937;BME280;71432;56.558;9.036;2023-07-16T06:45:07;100184.38;;;24.92;52.35
81937;BME280;71432;56.558;9.036;2023-07-16T06:47:33;100188.00;;;24.91;52.29
81937;BME280;71432;56.558;9.036;2023-07-16T06:49:58;100192.31;;;24.92;52.55
81937;BME280;71432;56.558;9.036;2023-07-16T06:52:24;100207.81;;;24.95;52.19
81937;BME280;71432;56.558;9.036;2023-07-16T06:54:55;100201.91;;;24.93;52.25
81937;BME280;71432;56.558;9.036;2023-07-16T06:57:21;100185.81;;;24.94;52.49
81937;BME280;71432;56.558;9.036;2023-07-16T06:59:46;100190.94;;;24.96;52.47
81937;BME280;71432;56.558;9.036;2023-07-16T07:02:12;100202.53;;;24.95;52.42
81937;BME280;71432;56.558;9.036;2023-07-16T07:04:37;100202.72;;;24.93;52.31
81937;BME280;71432;56.558;9.036;2023-07-16T07:07:03;100208.03;;;24.93;52.45
81937;BME280;71432;56.558;9.036;2023-07-16T07:09:28;100212.50;;;24.93;52.54
81937;BME280;71432;56.558;9.036;2023-07-16T07:11:54;100216.31;;;24.90;52.49
81937;BME280;71432;56.558;9.036;2023-07-16T07:14:19;100214.50;;;24.91;52.44
81937;BME280;71432;56.558;9.036;2023-07-16T07:16:44;100203.28;;;24.89;52.29
81937;BME280;71432;56.558;9.036;2023-07-16T07:19:10;100204.72;;;24.91;52.41
81937;BME280;71432;56.558;9.036;2023-07-16T07:21:35;100197.88;;;24.97;51.97
81937;BME280;71432;56.558;9.036;2023-07-16T07:24:00;100192.19;;;25.00;52.06
81937;BME280;71432;56.558;9.036;2023-07-16T07:26:25;100193.66;;;25.02;52.51
81937;BME280;71432;56.558;9.036;2023-07-16T07:28:51;100186.53;;;25.03;52.21
81937;BME280;71432;56.558;9.036;2023-07-16T07:31:16;100184.34;;;25.06;51.84
81937;BME280;71432;56.558;9.036;2023-07-16T07:33:41;100185.16;;;25.07;51.92
81937;BME280;71432;56.558;9.036;2023-07-16T07:36:07;100182.78;;;25.12;52.07
81937;BME280;71432;56.558;9.036;2023-07-16T07:38:32;100180.91;;;25.12;51.99
81937;BME280;71432;56.558;9.036;2023-07-16T07:40:57;100182.22;;;25.16;51.85
81937;BME280;71432;56.558;9.036;2023-07-16T07:43:23;100184.03;;;25.16;51.51
81937;BME280;71432;56.558;9.036;2023-07-16T07:45:48;100180.56;;;25.15;51.81
81937;BME280;71432;56.558;9.036;2023-07-16T07:48:13;100181.38;;;25.16;51.96
81937;BME280;71432;56.558;9.036;2023-07-16T07:50:39;100185.88;;;25.15;51.94
81937;BME280;71432;56.558;9.036;2023-07-16T07:53:05;100202.56;;;25.16;51.91
81937;BME280;71432;56.558;9.036;2023-07-16T07:55:30;100204.41;;;25.15;51.88
81937;BME280;71432;56.558;9.036;2023-07-16T07:57:55;100198.28;;;25.15;51.77
81937;BME280;71432;56.558;9.036;2023-07-16T08:00:21;100187.94;;;25.20;51.74
81937;BME280;71432;56.558;9.036;2023-07-16T08:02:46;100192.25;;;25.21;51.47
81937;BME280;71432;56.558;9.036;2023-07-16T08:05:11;100199.63;;;25.26;51.71
81937;BME280;71432;56.558;9.036;2023-07-16T08:07:37;100193.03;;;25.21;51.88
81937;BME280;71432;56.558;9.036;2023-07-16T08:10:03;100195.06;;;25.19;51.99
81937;BME280;71432;56.558;9.036;2023-07-16T08:12:28;100192.25;;;25.21;51.76
81937;BME280;71432;56.558;9.036;2023-07-16T08:14:55;100199.72;;;25.17;51.71
81937;BME280;71432;56.558;9.036;2023-07-16T08:17:21;100204.19;;;25.17;51.86
81937;BME280;71432;56.558;9.036;2023-07-16T08:19:46;100181.56;;;25.14;52.01
81937;BME280;71432;56.558;9.036;2023-07-16T08:22:11;100193.69;;;25.23;51.99
81937;BME280;71432;56.558;9.036;2023-07-16T08:24:37;100181.19;;;25.17;52.11
81937;BME280;71432;56.558;9.036;2023-07-16T08:27:03;100190.47;;;25.28;51.97
81937;BME280;71432;56.558;9.036;2023-07-16T08:29:28;100192.94;;;25.30;51.68
81937;BME280;71432;56.558;9.036;2023-07-16T08:31:53;100204.16;;;25.32;51.51
81937;BME280;71432;56.558;9.036;2023-07-16T08:34:19;100192.72;;;25.31;52.00
81937;BME280;71432;56.558;9.036;2023-07-16T08:36:44;100205.53;;;25.28;51.74
81937;BME280;71432;56.558;9.036;2023-07-16T08:39:09;100204.38;;;25.30;51.71
81937;BME280;71432;56.558;9.036;2023-07-16T08:41:35;100201.50;;;25.32;51.92
81937;BME280;71432;56.558;9.036;2023-07-16T08:44:00;100195.59;;;25.30;51.65
81937;BME280;71432;56.558;9.036;2023-07-16T08:46:26;100203.16;;;25.33;51.64
81937;BME280;71432;56.558;9.036;2023-07-16T08:48:53;100213.94;;;25.31;51.67
81937;BME280;71432;56.558;9.036;2023-07-16T08:51:20;100229.00;;;25.31;51.58
81937;BME280;71432;56.558;9.036;2023-07-16T08:53:47;100222.09;;;25.30;51.51
81937;BME280;71432;56.558;9.036;2023-07-16T08:56:12;100220.19;;;25.23;51.44
81937;BME280;71432;56.558;9.036;2023-07-16T08:58:38;100227.56;;;25.28;51.16
81937;BME280;71432;56.558;9.036;2023-07-16T09:01:05;100243.53;;;25.35;51.02
81937;BME280;71432;56.558;9.036;2023-07-16T09:03:30;100244.28;;;25.29;51.38
81937;BME280;71432;56.558;9.036;2023-07-16T09:05:56;100232.69;;;25.30;51.19
81937;BME280;71432;56.558;9.036;2023-07-16T09:08:21;100225.72;;;25.29;51.09
81937;BME280;71432;56.558;9.036;2023-07-16T09:10:54;100226.81;;;25.34;51.11
81937;BME280;71432;56.558;9.036;2023-07-16T09:13:20;100237.03;;;25.37;51.16
81937;BME280;71432;56.558;9.036;2023-07-16T09:15:51;100244.81;;;25.39;51.13
81937;BME280;71432;56.558;9.036;2023-07-16T09:18:21;100243.22;;;25.44;50.72
81937;BME280;71432;56.558;9.036;2023-07-16T09:20:47;100232.44;;;25.46;51.19
81937;BME280;71432;56.558;9.036;2023-07-16T09:23:12;100238.94;;;25.43;50.59
81937;BME280;71432;56.558;9.036;2023-07-16T09:25:37;100240.34;;;25.39;49.84
81937;BME280;71432;56.558;9.036;2023-07-16T09:28:04;100236.78;;;25.32;50.23
81937;BME280;71432;56.558;9.036;2023-07-16T09:30:31;100248.09;;;25.26;49.72
81937;BME280;71432;56.558;9.036;2023-07-16T09:33:26;100240.84;;;25.13;49.82
81937;BME280;71432;56.558;9.036;2023-07-16T09:35:51;100259.31;;;25.07;49.30
81937;BME280;71432;56.558;9.036;2023-07-16T09:38:18;100251.94;;;25.02;49.71
81937;BME280;71432;56.558;9.036;2023-07-16T09:40:44;100253.38;;;25.05;49.63
81937;BME280;71432;56.558;9.036;2023-07-16T09:43:11;100253.19;;;25.06;49.56
81937;BME280;71432;56.558;9.036;2023-07-16T09:45:37;100249.72;;;25.06;49.24
81937;BME280;71432;56.558;9.036;2023-07-16T09:48:03;100253.38;;;25.05;49.29
81937;BME280;71432;56.558;9.036;2023-07-16T09:50:31;100239.56;;;25.09;49.10
81937;BME280;71432;56.558;9.036;2023-07-16T09:52:57;100249.44;;;25.15;49.10
81937;BME280;71432;56.558;9.036;2023-07-16T09:55:23;100264.56;;;25.21;48.13
81937;BME280;71432;56.558;9.036;2023-07-16T09:57:52;100255.44;;;25.24;48.34
81937;BME280;71432;56.558;9.036;2023-07-16T10:00:19;100257.25;;;25.23;47.44
81937;BME280;71432;56.558;9.036;2023-07-16T10:02:46;100259.66;;;25.18;47.53
81937;BME280;71432;56.558;9.036;2023-07-16T10:07:38;100260.06;;;24.86;48.08
81937;BME280;71432;56.558;9.036;2023-07-16T10:10:07;100277.28;;;24.82;47.36
81937;BME280;71432;56.558;9.036;2023-07-16T10:12:34;100291.25;;;24.61;48.45
81937;BME280;71432;56.558;9.036;2023-07-16T10:15:00;100292.72;;;24.78;48.64
81937;BME280;71432;56.558;9.036;2023-07-16T10:17:31;100301.22;;;24.74;48.46
81937;BME280;71432;56.558;9.036;2023-07-16T10:20:09;100303.47;;;24.77;48.54
81937;BME280;71432;56.558;9.036;2023-07-16T10:22:38;100293.44;;;24.72;49.15
81937;BME280;71432;56.558;9.036;2023-07-16T10:27:43;100301.78;;;24.84;49.04
81937;BME280;71432;56.558;9.036;2023-07-16T10:30:09;100301.03;;;24.90;48.58
81937;BME280;71432;56.558;9.036;2023-07-16T10:32:35;100296.47;;;24.99;47.93
81937;BME280;71432;56.558;9.036;2023-07-16T10:35:01;100321.63;;;25.03;48.06
81937;BME280;71432;56.558;9.036;2023-07-16T10:37:28;100314.00;;;25.00;48.01
81937;BME280;71432;56.558;9.036;2023-07-16T10:39:55;100311.38;;;25.00;48.06
81937;BME280;71432;56.558;9.036;2023-07-16T10:42:22;100323.44;;;25.02;47.56
81937;BME280;71432;56.558;9.036;2023-07-16T10:44:53;100320.78;;;25.02;47.89
81937;BME280;71432;56.558;9.036;2023-07-16T10:47:38;100314.22;;;24.98;47.71
81937;BME280;71432;56.558;9.036;2023-07-16T10:50:05;100329.25;;;24.83;48.24
81937;BME280;71432;56.558;9.036;2023-07-16T10:52:32;100330.22;;;24.82;47.73
81937;BME280;71432;56.558;9.036;2023-07-16T10:54:58;100335.53;;;24.82;46.68
81937;BME280;71432;56.558;9.036;2023-07-16T10:57:24;100336.34;;;24.83;46.63
81937;BME280;71432;56.558;9.036;2023-07-16T10:59:54;100336.19;;;24.84;46.99
81937;BME280;71432;56.558;9.036;2023-07-16T11:02:21;100325.94;;;24.81;46.97
81937;BME280;71432;56.558;9.036;2023-07-16T11:04:47;100323.50;;;24.79;47.42
81937;BME280;71432;56.558;9.036;2023-07-16T11:07:13;100330.22;;;24.82;46.74
81937;BME280;71432;56.558;9.036;2023-07-16T11:09:47;100321.66;;;24.80;46.19
81937;BME280;71432;56.558;9.036;2023-07-16T11:12:21;100334.50;;;24.68;45.98
81937;BME280;71432;56.558;9.036;2023-07-16T11:14:49;100351.50;;;24.74;45.46
81937;BME280;71432;56.558;9.036;2023-07-16T11:17:16;100356.50;;;24.69;45.51
81937;BME280;71432;56.558;9.036;2023-07-16T11:19:45;100343.81;;;24.64;45.55
81937;BME280;71432;56.558;9.036;2023-07-16T11:22:10;100358.50;;;24.67;45.72
81937;BME280;71432;56.558;9.036;2023-07-16T11:24:44;100369.91;;;24.67;45.62
81937;BME280;71432;56.558;9.036;2023-07-16T11:27:17;100371.41;;;24.70;45.49
81937;BME280;71432;56.558;9.036;2023-07-16T11:29:51;100362.31;;;24.50;45.01
81937;BME280;71432;56.558;9.036;2023-07-16T11:34:59;100373.97;;;24.41;45.53
81937;BME280;71432;56.558;9.036;2023-07-16T11:37:25;100378.81;;;24.37;45.50
81937;BME280;71432;56.558;9.036;2023-07-16T11:39:55;100361.41;;;24.43;45.17
81937;BME280;71432;56.558;9.036;2023-07-16T11:44:53;100372.69;;;24.36;45.23
81937;BME280;71432;56.558;9.036;2023-07-16T11:47:20;100381.81;;;24.34;45.64
81937;BME280;71432;56.558;9.036;2023-07-16T11:49:45;100385.16;;;24.28;45.69
81937;BME280;71432;56.558;9.036;2023-07-16T11:52:10;100409.97;;;24.27;45.47
81937;BME280;71432;56.558;9.036;2023-07-16T11:54:36;100412.38;;;24.36;45.55
81937;BME280;71432;56.558;9.036;2023-07-16T11:57:01;100418.66;;;24.35;46.01
81937;BME280;71432;56.558;9.036;2023-07-16T11:59:26;100437.47;;;24.41;45.90
81937;BME280;71432;56.558;9.036;2023-07-16T12:01:52;100436.34;;;24.35;46.14
81937;BME280;71432;56.558;9.036;2023-07-16T12:04:17;100443.13;;;24.38;46.02
81937;BME280;71432;56.558;9.036;2023-07-16T12:06:43;100438.31;;;24.41;46.20
81937;BME280;71432;56.558;9.036;2023-07-16T12:09:09;100433.47;;;24.45;46.05
81937;BME280;71432;56.558;9.036;2023-07-16T12:11:34;100431.03;;;24.43;46.25
81937;BME280;71432;56.558;9.036;2023-07-16T12:13:59;100451.28;;;24.51;46.22
81937;BME280;71432;56.558;9.036;2023-07-16T12:16:25;100441.41;;;24.45;45.70
81937;BME280;71432;56.558;9.036;2023-07-16T12:18:50;100437.13;;;24.44;46.48
81937;BME280;71432;56.558;9.036;2023-07-16T12:21:15;100447.88;;;24.42;46.68
81937;BME280;71432;56.558;9.036;2023-07-16T12:23:40;100458.63;;;24.41;47.00
81937;BME280;71432;56.558;9.036;2023-07-16T12:26:06;100465.28;;;24.36;47.09
81937;BME280;71432;56.558;9.036;2023-07-16T12:28:31;100475.75;;;24.30;47.66
81937;BME280;71432;56.558;9.036;2023-07-16T12:30:56;100477.91;;;24.26;48.11
81937;BME280;71432;56.558;9.036;2023-07-16T12:33:22;100497.97;;;24.21;48.65
81937;BME280;71432;56.558;9.036;2023-07-16T12:35:47;100471.72;;;24.11;48.97
81937;BME280;71432;56.558;9.036;2023-07-16T12:38:12;100486.97;;;24.01;49.23
81937;BME280;71432;56.558;9.036;2023-07-16T12:40:38;100502.03;;;23.92;49.39
81937;BME280;71432;56.558;9.036;2023-07-16T12:43:06;100525.38;;;23.89;50.05
81937;BME280;71432;56.558;9.036;2023-07-16T12:45:32;100525.03;;;23.84;50.75
81937;BME280;71432;56.558;9.036;2023-07-16T12:47:57;100523.31;;;23.99;51.05
81937;BME280;71432;56.558;9.036;2023-07-16T12:50:23;100524.25;;;24.14;51.88
81937;BME280;71432;56.558;9.036;2023-07-16T12:52:48;100523.09;;;24.17;51.26
81937;BME280;71432;56.558;9.036;2023-07-16T12:55:14;100520.44;;;24.17;51.52